Elm Grove, Wisconsin
Current Conditions -  °F | °C
As of 12:55 AM on Monday 24 Nov 2014 (Local Time) from KMWC Reporting Station
Moderate Rain Moderate Rain  
Wind Chill:   Ceiling: 200
Heat Index:   Visibility: 1.5mi
Dew Point:   Wind: 3mph
Humidity: 100%   Direction: 300°WNW
Pressure: 29.07"   Gusts: NA
Location:  43.05°N, 88.08°W
Report Text: KMWC 240655Z AUTO 30003KT 1 1/2SM RA BKN002 OVC006 06/06 A2907 RMK AO2 P0001
Loading
Personal Weather Stations






























Interactive Weather Map New forecast layout! Learn more

10-Day Weather Forecast

Advertisements
Track Severe Weather on mobile